createdAt,value
2018-02-06T00:01:30.700Z,100916.45
2018-02-06T00:03:58.171Z,100911.95
2018-02-06T00:06:25.648Z,100914.48
2018-02-06T00:08:53.132Z,100901.82
2018-02-06T00:11:20.974Z,100899.50
2018-02-06T00:13:48.546Z,100903.84
2018-02-06T00:16:16.024Z,100898.84
2018-02-06T00:18:43.509Z,100895.48
2018-02-06T00:21:10.984Z,100893.28
2018-02-06T00:23:38.465Z,100894.33
2018-02-06T00:26:05.959Z,100890.81
2018-02-06T00:28:33.449Z,100890.23
2018-02-06T00:31:00.926Z,100886.48
2018-02-06T00:33:28.410Z,100885.30
2018-02-06T00:35:55.905Z,100879.27
2018-02-06T00:38:23.405Z,100875.44
2018-02-06T00:40:50.861Z,100873.87
2018-02-06T00:43:18.335Z,100881.45
2018-02-06T00:45:45.812Z,100881.91
2018-02-06T00:48:13.321Z,100871.34
2018-02-06T00:50:40.797Z,100866.35
2018-02-06T00:53:08.375Z,100865.54
2018-02-06T00:55:35.965Z,100865.11
2018-02-06T00:58:03.429Z,100863.55
2018-02-06T01:00:30.905Z,100864.02
2018-02-06T01:02:58.434Z,100867.00
2018-02-06T01:05:25.914Z,100860.25
2018-02-06T01:07:53.488Z,100860.97
2018-02-06T01:10:20.973Z,100864.40
2018-02-06T01:12:48.440Z,100858.77
2018-02-06T01:15:15.992Z,100857.92
2018-02-06T01:17:43.476Z,100854.85
2018-02-06T01:20:11.040Z,100848.38
2018-02-06T01:22:38.613Z,100847.16
2018-02-06T01:25:06.100Z,100845.59
2018-02-06T01:27:33.663Z,100837.27
2018-02-06T01:30:01.232Z,100825.25
2018-02-06T01:32:36.220Z,100822.39
2018-02-06T01:35:03.740Z,100824.97
2018-02-06T01:37:31.214Z,100825.93
2018-02-06T01:39:58.808Z,100815.55
2018-02-06T04:39:28.779Z,100637.58
2018-02-06T04:41:56.255Z,100638.88
2018-02-06T04:44:23.720Z,100640.96
2018-02-06T04:46:51.189Z,100640.77
2018-02-06T04:49:18.645Z,100640.47
2018-02-06T04:51:46.127Z,100641.77
2018-02-06T04:54:13.572Z,100642.05
2018-02-06T04:56:41.028Z,100632.85
2018-02-06T04:59:08.511Z,100631.95
2018-02-06T05:01:36.032Z,100633.53
2018-02-06T05:04:03.514Z,100641.34
2018-02-06T05:06:30.971Z,100633.35
2018-02-06T05:08:58.444Z,100629.35
2018-02-06T05:11:25.991Z,100630.20
2018-02-06T05:13:53.473Z,100627.91
2018-02-06T05:16:20.954Z,100627.34
2018-02-06T05:18:48.488Z,100619.22
2018-02-06T05:21:15.984Z,100622.44
2018-02-06T05:23:43.439Z,100618.27
2018-02-06T05:26:10.917Z,100611.17
2018-02-06T05:28:38.393Z,100604.48
2018-02-06T05:31:05.944Z,100601.65
2018-02-06T05:33:33.440Z,100595.45
2018-02-06T05:36:00.963Z,100594.38
2018-02-06T05:38:28.463Z,100596.00
2018-02-06T05:40:55.991Z,100587.61
2018-02-06T05:43:23.460Z,100594.30
2018-02-06T05:45:50.921Z,100589.49
2018-02-06T05:48:18.417Z,100583.39
2018-02-06T05:50:45.893Z,100590.51
2018-02-06T05:53:13.382Z,100583.58
2018-02-06T05:55:40.881Z,100588.65
2018-02-06T05:58:08.372Z,100586.78
2018-02-06T06:00:35.896Z,100589.94
2018-02-06T06:03:03.349Z,100588.63
2018-02-06T06:05:30.840Z,100583.50
2018-02-06T06:07:58.308Z,100587.34
2018-02-06T06:10:26.023Z,100580.97
2018-02-06T06:12:53.596Z,100585.55
2018-02-06T06:15:21.073Z,100591.95
2018-02-06T06:17:48.594Z,100580.12
2018-02-06T06:20:16.113Z,100587.00
2018-02-06T06:22:43.608Z,100577.98
2018-02-06T06:25:11.097Z,100580.38
2018-02-06T06:27:38.564Z,100569.91
2018-02-06T06:30:06.161Z,100575.11
2018-02-06T06:32:33.623Z,100566.55
2018-02-06T06:35:01.140Z,100565.91
2018-02-06T06:37:28.605Z,100566.39
2018-02-06T06:39:56.080Z,100561.06
2018-02-06T06:42:23.548Z,100556.84
2018-02-06T06:44:51.072Z,100545.37
2018-02-06T06:47:18.556Z,100558.12
2018-02-06T06:49:46.061Z,100558.13
2018-02-06T06:52:13.600Z,100554.24
2018-02-06T06:54:41.160Z,100553.38
2018-02-06T06:57:08.774Z,100546.44
2018-02-06T06:59:37.105Z,100542.31
2018-02-06T07:02:04.642Z,100537.70
2018-02-06T07:04:32.126Z,100535.52
2018-02-06T07:06:59.618Z,100540.50
2018-02-06T07:09:27.215Z,100531.87
2018-02-06T07:11:54.676Z,100532.55
2018-02-06T07:14:22.231Z,100529.70
2018-02-06T07:16:49.689Z,100529.02
2018-02-06T07:19:17.187Z,100527.59
2018-02-06T07:21:44.672Z,100530.14
2018-02-06T07:24:12.216Z,100523.37
2018-02-06T07:26:39.675Z,100526.78
2018-02-06T07:29:07.164Z,100534.92
2018-02-06T07:31:34.632Z,100524.11
2018-02-06T07:34:02.097Z,100525.98
2018-02-06T07:36:29.573Z,100534.89
2018-02-06T07:38:57.033Z,100531.60
2018-02-06T07:41:24.502Z,100534.03
2018-02-06T07:43:51.954Z,100529.06
2018-02-06T07:46:19.419Z,100530.84
2018-02-06T07:48:46.885Z,100515.00
2018-02-06T07:51:14.348Z,100521.30
2018-02-06T07:53:41.845Z,100518.61
2018-02-06T07:56:09.388Z,100509.92
2018-02-06T07:58:36.831Z,100513.66
2018-02-06T08:01:04.326Z,100513.58
2018-02-06T08:03:31.828Z,100514.78
2018-02-06T08:05:59.304Z,100510.23
2018-02-06T08:08:26.872Z,100508.69
2018-02-06T08:10:54.361Z,100513.14
2018-02-06T08:13:21.819Z,100516.83
2018-02-06T08:15:49.298Z,100511.53
2018-02-06T08:18:16.762Z,100511.77
2018-02-06T08:20:44.239Z,100506.84
2018-02-06T08:23:11.719Z,100499.22
2018-02-06T08:25:39.264Z,100494.71
2018-02-06T08:28:06.732Z,100495.08
2018-02-06T08:30:34.202Z,100499.44
2018-02-06T08:33:01.684Z,100494.73
2018-02-06T08:35:29.176Z,100491.51
2018-02-06T08:37:56.705Z,100489.92
2018-02-06T08:40:24.168Z,100483.78
2018-02-06T08:42:51.666Z,100488.77
2018-02-06T08:45:19.230Z,100484.55
2018-02-06T08:47:46.807Z,100485.68
2018-02-06T08:50:14.372Z,100481.69
2018-02-06T08:52:41.846Z,100477.13
2018-02-06T08:55:09.303Z,100466.09
2018-02-06T08:57:36.784Z,100466.36
2018-02-06T09:00:04.255Z,100449.20
2018-02-06T09:02:31.732Z,100456.81
2018-02-06T09:04:59.305Z,100450.02
2018-02-06T09:07:26.831Z,100448.47
2018-02-06T09:09:54.298Z,100449.16
2018-02-06T09:12:21.749Z,100451.14
2018-02-06T09:14:49.276Z,100446.72
2018-02-06T09:17:16.745Z,100446.11
2018-02-06T09:19:44.237Z,100450.30
2018-02-06T09:22:11.708Z,100454.45
2018-02-06T09:24:39.185Z,100448.44
2018-02-06T09:27:06.667Z,100452.80
2018-02-06T09:29:34.202Z,100449.12
2018-02-06T09:32:01.772Z,100446.23
2018-02-06T09:34:29.264Z,100453.34
2018-02-06T09:36:56.721Z,100452.55
2018-02-06T09:39:24.179Z,100450.30
2018-02-06T09:41:51.672Z,100449.36
2018-02-06T09:44:19.589Z,100451.09
2018-02-06T09:46:47.066Z,100439.20
2018-02-06T09:49:14.523Z,100444.19
2018-02-06T09:51:42.024Z,100446.25
2018-02-06T09:54:09.510Z,100436.55
2018-02-06T09:56:36.982Z,100429.66
2018-02-06T09:59:04.553Z,100432.85
2018-02-06T10:01:32.125Z,100431.31
2018-02-06T10:03:59.575Z,100433.42
2018-02-06T10:06:27.040Z,100428.41
2018-02-06T10:08:54.510Z,100422.29
2018-02-06T10:11:21.972Z,100422.97
2018-02-06T10:13:49.474Z,100416.52
2018-02-06T10:16:16.953Z,100407.55
2018-02-06T10:18:44.424Z,100406.77
2018-02-06T10:21:11.901Z,100399.36
2018-02-06T10:23:39.663Z,100401.35
2018-02-06T10:26:07.145Z,100395.52
2018-02-06T10:28:34.663Z,100390.10
2018-02-06T10:31:02.137Z,100390.88
2018-02-06T10:33:29.620Z,100387.79
2018-02-06T10:35:57.119Z,100377.58
2018-02-06T10:38:24.588Z,100373.00
2018-02-06T10:40:52.145Z,100368.70
2018-02-06T10:43:19.616Z,100373.34
2018-02-06T10:45:47.457Z,100360.31
2018-02-06T10:48:14.917Z,100359.75
2018-02-06T10:50:42.370Z,100361.00
2018-02-06T10:53:09.848Z,100354.47
2018-02-06T10:55:37.326Z,100352.80
2018-02-06T10:58:04.805Z,100349.17
2018-02-06T11:00:32.268Z,100345.27
2018-02-06T11:02:59.768Z,100344.53
2018-02-06T11:05:27.260Z,100350.65
2018-02-06T11:07:54.717Z,100339.41
2018-02-06T11:10:22.199Z,100343.68
2018-02-06T11:12:49.650Z,100324.97
2018-02-06T11:15:17.135Z,100323.64
2018-02-06T11:17:44.705Z,100311.84
2018-02-06T11:20:12.159Z,100310.67
2018-02-06T11:22:39.758Z,100315.05
2018-02-06T11:25:07.272Z,100302.05
2018-02-06T11:27:34.750Z,100300.90
2018-02-06T11:30:02.370Z,100297.77
2018-02-06T11:32:29.853Z,100294.52
2018-02-06T11:34:57.407Z,100291.05
2018-02-06T11:37:24.877Z,100296.20
2018-02-06T11:39:52.356Z,100294.17
2018-02-06T11:42:19.931Z,100283.02
2018-02-06T11:44:47.396Z,100285.69
2018-02-06T11:47:14.962Z,100269.84
2018-02-06T11:49:42.465Z,100273.22
2018-02-06T11:52:09.928Z,100263.65
2018-02-06T11:54:37.404Z,100258.75
2018-02-06T11:57:04.916Z,100257.38
2018-02-06T11:59:32.364Z,100260.84
2018-02-06T12:01:59.881Z,100259.77
2018-02-06T12:04:27.375Z,100250.70
2018-02-06T12:06:54.930Z,100240.14
2018-02-06T12:09:22.508Z,100230.83
2018-02-06T12:11:49.979Z,100229.48
2018-02-06T12:14:17.469Z,100214.40
2018-02-06T12:16:44.933Z,100211.64
2018-02-06T12:19:12.421Z,100211.15
2018-02-06T12:21:39.881Z,100205.41
2018-02-06T12:24:07.368Z,100210.56
2018-02-06T12:26:34.836Z,100210.37
2018-02-06T12:29:02.301Z,100211.56
2018-02-06T12:31:29.834Z,100211.45
2018-02-06T12:33:57.410Z,100207.29
2018-02-06T12:36:25.162Z,100203.13
2018-02-06T12:38:52.683Z,100207.51
2018-02-06T12:41:20.159Z,100194.83
2018-02-06T12:43:47.619Z,100198.62
2018-02-06T12:46:15.098Z,100193.84
2018-02-06T12:48:42.652Z,100189.11
2018-02-06T12:51:10.125Z,100186.22
2018-02-06T12:53:37.658Z,100183.23
2018-02-06T12:56:05.532Z,100182.83
2018-02-06T12:58:33.043Z,100181.18
2018-02-06T13:01:00.595Z,100184.80
2018-02-06T13:03:28.079Z,100179.47
2018-02-06T13:05:55.638Z,100173.61
2018-02-06T13:08:23.134Z,100174.08
2018-02-06T13:10:50.610Z,100176.03
2018-02-06T13:13:18.169Z,100174.95
2018-02-06T13:15:45.736Z,100169.31
2018-02-06T13:18:13.297Z,100175.10
2018-02-06T13:20:40.754Z,100170.94
2018-02-06T13:23:08.235Z,100166.09
2018-02-06T13:25:35.704Z,100157.01
2018-02-06T13:28:03.175Z,100163.09
2018-02-06T13:30:30.660Z,100163.31
2018-02-06T13:32:58.211Z,100158.23
2018-02-06T13:35:25.786Z,100151.89
2018-02-06T13:37:53.251Z,100143.77
2018-02-06T13:40:20.821Z,100145.92
2018-02-06T13:42:48.277Z,100149.81
2018-02-06T13:45:15.857Z,100144.92
2018-02-06T13:47:43.329Z,100134.86
2018-02-06T13:50:10.807Z,100126.77
2018-02-06T13:52:38.311Z,100130.83
2018-02-06T13:55:05.874Z,100126.78
2018-02-06T14:00:27.169Z,100119.67
2018-02-06T14:02:54.653Z,100116.72
2018-02-06T14:05:22.113Z,100127.53
2018-02-06T14:07:49.591Z,100125.27
2018-02-06T14:10:17.043Z,100120.03
2018-02-06T14:12:44.569Z,100115.53
2018-02-06T14:15:12.014Z,100108.45
2018-02-06T14:17:39.492Z,100099.28
2018-02-06T14:20:06.942Z,100092.38
2018-02-06T14:22:34.392Z,100083.98
2018-02-06T14:25:01.856Z,100080.21
2018-02-06T14:27:29.302Z,100083.43
2018-02-06T14:29:56.783Z,100070.58
2018-02-06T14:32:24.233Z,100070.08
2018-02-06T14:34:51.709Z,100054.08
2018-02-06T14:37:20.476Z,100058.33
2018-02-06T14:39:47.947Z,100057.11
2018-02-06T14:42:15.400Z,100049.30
2018-02-06T14:44:42.863Z,100053.89
2018-02-06T14:47:10.323Z,100058.23
2018-02-06T14:49:37.773Z,100049.73
2018-02-06T14:52:05.246Z,100049.95
2018-02-06T14:54:32.703Z,100041.96
2018-02-06T14:57:00.155Z,100044.70
2018-02-06T14:59:27.636Z,100046.23
2018-02-06T15:01:55.103Z,100043.86
2018-02-06T15:04:22.572Z,100045.41
2018-02-06T15:06:50.034Z,100050.05
2018-02-06T15:09:17.475Z,100050.91
2018-02-06T15:11:44.924Z,100053.06
2018-02-06T15:14:12.395Z,100043.19
2018-02-06T15:16:39.848Z,100051.25
2018-02-06T15:19:07.320Z,100035.23
2018-02-06T15:21:34.772Z,100036.83
2018-02-06T15:24:02.257Z,100035.66
2018-02-06T15:26:29.825Z,100035.52
2018-02-06T15:28:57.293Z,100033.44
2018-02-06T15:31:24.741Z,100040.42
2018-02-06T15:33:52.229Z,100051.79
2018-02-06T15:36:19.693Z,100045.25
2018-02-06T15:38:47.133Z,100047.00
2018-02-06T15:41:14.601Z,100050.60
2018-02-06T15:43:42.044Z,100050.84
2018-02-06T15:46:09.506Z,100050.25
2018-02-06T15:48:36.960Z,100054.86
2018-02-06T15:51:04.445Z,100050.31
2018-02-06T15:53:31.946Z,100048.99
2018-02-06T15:55:59.432Z,100050.23
2018-02-06T15:58:26.913Z,100046.43
2018-02-06T16:00:54.375Z,100049.52
2018-02-06T16:03:21.844Z,100053.80
2018-02-06T16:05:49.311Z,100049.36
2018-02-06T16:08:16.784Z,100048.84
2018-02-06T16:10:44.235Z,100045.77
2018-02-06T16:13:11.721Z,100049.72
2018-02-06T16:15:39.174Z,100051.07
2018-02-06T16:18:06.655Z,100041.69
2018-02-06T16:20:34.123Z,100048.51
2018-02-06T16:23:01.590Z,100057.02
2018-02-06T16:25:29.038Z,100052.55
2018-02-06T16:27:56.551Z,100051.89
2018-02-06T16:30:24.029Z,100055.65
2018-02-06T16:32:51.522Z,100053.53
2018-02-06T16:35:18.983Z,100055.56
2018-02-06T16:37:46.472Z,100055.28
2018-02-06T16:40:13.954Z,100052.95
2018-02-06T16:42:41.417Z,100054.42
2018-02-06T16:45:08.887Z,100061.37
2018-02-06T16:47:36.498Z,100060.80
2018-02-06T16:50:03.995Z,100057.60
2018-02-06T16:52:31.547Z,100061.15
2018-02-06T16:54:59.021Z,100053.56
2018-02-06T16:57:26.509Z,100048.94
2018-02-06T16:59:53.965Z,100049.23
2018-02-06T17:02:33.345Z,100048.23
2018-02-06T17:05:00.809Z,100046.49
2018-02-06T17:07:28.275Z,100042.66
2018-02-06T17:09:55.731Z,100041.27
2018-02-06T17:12:27.521Z,100045.16
2018-02-06T17:14:54.972Z,100039.08
2018-02-06T17:17:22.445Z,100043.66
2018-02-06T17:19:49.932Z,100048.12
2018-02-06T17:22:17.404Z,100046.58
2018-02-06T17:24:44.871Z,100047.30
2018-02-06T17:27:12.423Z,100043.25
2018-02-06T17:29:39.887Z,100050.04
2018-02-06T17:32:07.371Z,100048.85
2018-02-06T17:34:34.857Z,100046.61
2018-02-06T17:37:02.323Z,100048.06
2018-02-06T17:39:29.804Z,100043.61
2018-02-06T17:41:57.272Z,100047.55
2018-02-06T17:44:24.725Z,100039.38
2018-02-06T17:46:52.236Z,100039.98
2018-02-06T17:49:19.784Z,100031.79
2018-02-06T17:51:47.515Z,100033.19
2018-02-06T17:54:14.974Z,100030.17
2018-02-06T17:56:42.484Z,100038.27
2018-02-06T17:59:09.936Z,100037.56
2018-02-06T18:01:37.428Z,100028.45
2018-02-06T18:04:04.910Z,100036.55
2018-02-06T18:06:32.465Z,100037.77
2018-02-06T18:08:59.982Z,100036.76
2018-02-06T18:11:27.451Z,100034.23
2018-02-06T18:13:54.916Z,100031.78
2018-02-06T18:16:22.371Z,100029.27
2018-02-06T18:18:49.908Z,100019.57
2018-02-06T18:21:17.392Z,100017.16
2018-02-06T18:23:44.864Z,100020.36
2018-02-06T18:26:12.352Z,100019.86
2018-02-06T18:28:39.808Z,100018.18
2018-02-06T18:31:07.473Z,100012.27
2018-02-06T18:33:34.929Z,100008.70
2018-02-06T18:36:02.392Z,100009.63
2018-02-06T18:38:29.886Z,100000.24
2018-02-06T18:40:57.478Z,99998.73
2018-02-06T18:43:25.037Z,100002.06
2018-02-06T18:45:52.549Z,99995.80
2018-02-06T18:48:20.030Z,99993.58
2018-02-06T18:50:47.494Z,99989.21
2018-02-06T18:53:14.939Z,99991.15
2018-02-06T18:55:42.500Z,99984.95
2018-02-06T18:58:09.955Z,99991.32
2018-02-06T19:00:37.436Z,99991.81
2018-02-06T19:03:04.902Z,99982.70
2018-02-06T19:05:32.394Z,99991.72
2018-02-06T19:07:59.951Z,99985.33
2018-02-06T19:10:27.419Z,99965.90
2018-02-06T19:12:54.904Z,99960.52
2018-02-06T19:15:22.364Z,99959.09
2018-02-06T19:17:49.886Z,99953.25
2018-02-06T19:20:17.328Z,99958.71
2018-02-06T19:22:44.795Z,99954.38
2018-02-06T19:25:12.253Z,99942.24
2018-02-06T19:27:39.896Z,99947.91
2018-02-06T19:30:07.344Z,99942.75
2018-02-06T19:32:34.817Z,99945.96
2018-02-06T19:35:02.322Z,99939.16
2018-02-06T19:37:29.781Z,99942.39
2018-02-06T19:39:57.320Z,99948.80
2018-02-06T19:42:24.838Z,99943.92
2018-02-06T19:44:52.374Z,99938.63
2018-02-06T19:47:19.829Z,99941.17
2018-02-06T19:49:47.301Z,99946.75
2018-02-06T19:52:14.763Z,99948.75
2018-02-06T19:54:42.238Z,99948.58
2018-02-06T19:57:09.692Z,99943.30
2018-02-06T19:59:37.156Z,99953.63
2018-02-06T20:02:04.634Z,99951.61
2018-02-06T20:06:58.868Z,99945.91
2018-02-06T20:09:26.562Z,99953.56
2018-02-06T20:11:54.141Z,99959.44
2018-02-06T20:14:21.604Z,99957.86
2018-02-06T20:16:49.146Z,99958.26
2018-02-06T20:19:16.599Z,99959.27
2018-02-06T20:21:44.115Z,99952.97
2018-02-06T20:24:11.675Z,99947.50
2018-02-06T20:26:39.191Z,99950.45
2018-02-06T20:29:06.648Z,99950.54
2018-02-06T20:31:34.249Z,99942.63
2018-02-06T20:34:01.784Z,99955.58
2018-02-06T20:36:29.270Z,99952.61
2018-02-06T20:38:56.744Z,99954.27
2018-02-06T20:41:24.208Z,99961.13
2018-02-06T20:43:51.717Z,99952.64
2018-02-06T20:46:19.222Z,99963.67
2018-02-06T20:48:46.814Z,99963.16
2018-02-06T20:51:14.310Z,99955.09
2018-02-06T20:53:41.776Z,99959.52
2018-02-06T20:56:09.235Z,99959.55
2018-02-06T20:58:36.702Z,99963.20
2018-02-06T21:01:04.262Z,99968.63
2018-02-06T21:03:31.815Z,99971.17
2018-02-06T21:05:59.275Z,99965.95
2018-02-06T21:08:26.986Z,99970.71
2018-02-06T21:10:54.526Z,99973.45
2018-02-06T21:13:22.073Z,99970.73
2018-02-06T21:15:49.547Z,99966.16
2018-02-06T21:18:16.994Z,99954.13
2018-02-06T21:20:44.467Z,99951.17
2018-02-06T21:23:11.916Z,99942.77
2018-02-06T21:25:39.395Z,99936.23
2018-02-06T21:28:06.860Z,99935.72
2018-02-06T21:30:34.426Z,99936.84
2018-02-06T21:33:01.926Z,99945.97
2018-02-06T21:35:29.368Z,99942.59
2018-02-06T21:37:56.890Z,99954.94
2018-02-06T21:40:24.452Z,99963.15
2018-02-06T21:42:51.978Z,99968.78
2018-02-06T21:45:19.490Z,99964.34
2018-02-06T21:47:46.967Z,99963.22
2018-02-06T21:50:14.446Z,99963.52
2018-02-06T21:52:41.915Z,99959.05
2018-02-06T21:55:09.389Z,99957.55
2018-02-06T21:57:36.852Z,99960.16
2018-02-06T22:00:04.320Z,99970.08
2018-02-06T22:02:31.794Z,99967.47
2018-02-06T22:04:59.281Z,99967.96
2018-02-06T22:07:26.788Z,99970.60
2018-02-06T22:09:54.273Z,99973.92
2018-02-06T22:12:21.739Z,99976.56
2018-02-06T22:14:49.231Z,99971.41
2018-02-06T22:17:16.731Z,99969.08
2018-02-06T22:19:44.242Z,99974.31
2018-02-06T22:22:11.676Z,99969.78
2018-02-06T22:24:39.125Z,99964.22
2018-02-06T22:27:06.582Z,99967.86
2018-02-06T22:29:34.032Z,99962.20
2018-02-06T22:32:01.497Z,99962.31
2018-02-06T22:34:29.014Z,99964.34
2018-02-06T22:36:56.506Z,99955.14
2018-02-06T22:39:23.973Z,99948.68
2018-02-06T22:41:51.437Z,99947.75
2018-02-06T22:44:18.877Z,99944.84
2018-02-06T22:46:46.566Z,99945.23
2018-02-06T22:49:14.012Z,99945.53
2018-02-06T22:51:41.504Z,99939.28
2018-02-06T22:54:08.988Z,99941.91
2018-02-06T22:56:36.444Z,99945.03
2018-02-06T22:59:03.914Z,99940.88
2018-02-06T23:01:31.381Z,99939.48
2018-02-06T23:04:01.827Z,99948.77
2018-02-06T23:06:29.299Z,99952.42
2018-02-06T23:08:56.760Z,99952.63
2018-02-06T23:11:24.233Z,99953.76
2018-02-06T23:13:51.703Z,99949.38
2018-02-06T23:16:19.169Z,99948.11
2018-02-06T23:18:46.670Z,99949.31
2018-02-06T23:21:14.126Z,99953.75
2018-02-06T23:23:41.603Z,99950.03
2018-02-06T23:26:09.064Z,99953.77
2018-02-06T23:28:36.531Z,99952.56
2018-02-06T23:31:04.002Z,99944.38
2018-02-06T23:33:31.454Z,99950.34
2018-02-06T23:35:58.921Z,99953.77
2018-02-06T23:38:26.399Z,99954.77
2018-02-06T23:40:53.868Z,99956.91
2018-02-06T23:43:21.336Z,99953.98
2018-02-06T23:45:48.792Z,99952.34
2018-02-06T23:48:16.286Z,99956.89
2018-02-06T23:50:43.764Z,99951.73
2018-02-06T23:53:11.266Z,99948.69
2018-02-06T23:55:38.770Z,99944.35
2018-02-06T23:58:06.247Z,99949.00
